createdAt,value
2023-05-15T00:01:59.451Z,9.38
2023-05-15T00:04:28.013Z,14.15
2023-05-15T00:06:56.836Z,6.85
2023-05-15T00:09:29.126Z,7.72
2023-05-15T00:11:58.675Z,7.95
2023-05-15T00:14:27.663Z,7.00
2023-05-15T00:16:57.606Z,7.63
2023-05-15T00:19:28.122Z,8.65
2023-05-15T00:21:58.834Z,9.77
2023-05-15T00:24:27.331Z,8.63
2023-05-15T00:26:56.352Z,9.25
2023-05-15T00:29:28.255Z,6.20
2023-05-15T00:31:56.868Z,7.80
2023-05-15T00:34:28.564Z,8.02
2023-05-15T00:36:57.288Z,12.35
2023-05-15T00:39:30.540Z,10.70
2023-05-15T00:42:01.970Z,12.68
2023-05-15T00:44:32.388Z,7.55
2023-05-15T00:47:02.254Z,10.35
2023-05-15T00:49:36.659Z,10.68
2023-05-15T00:52:08.459Z,8.75
2023-05-15T00:54:36.811Z,9.52
2023-05-15T00:57:08.539Z,10.48
2023-05-15T00:59:40.743Z,11.23
2023-05-15T01:02:11.138Z,10.05
2023-05-15T01:04:43.676Z,11.73
2023-05-15T01:07:13.186Z,10.80
2023-05-15T01:09:45.911Z,11.65
2023-05-15T01:12:17.228Z,14.43
2023-05-15T01:14:45.758Z,16.42
2023-05-15T01:17:14.060Z,14.48
2023-05-15T01:19:44.692Z,11.15
2023-05-15T01:22:43.404Z,10.13
2023-05-15T01:25:46.352Z,9.00
2023-05-15T01:28:23.841Z,9.13
2023-05-15T01:30:56.466Z,7.97
2023-05-15T01:33:30.956Z,10.52
2023-05-15T01:36:04.880Z,10.27
2023-05-15T01:38:40.444Z,14.05
2023-05-15T01:43:55.717Z,10.45
2023-05-15T01:46:25.224Z,12.57
2023-05-15T01:48:54.959Z,9.95
2023-05-15T01:51:26.846Z,13.02
2023-05-15T01:53:58.971Z,12.18
2023-05-15T01:56:30.413Z,12.38
2023-05-15T01:59:04.416Z,13.65
2023-05-15T02:01:34.846Z,12.55
2023-05-15T02:04:05.119Z,12.40
2023-05-15T02:06:35.253Z,10.32
2023-05-15T02:09:06.432Z,11.75
2023-05-15T02:11:36.838Z,15.43
2023-05-15T02:14:13.429Z,16.60
2023-05-15T02:16:42.283Z,14.30
2023-05-15T02:19:11.131Z,12.52
2023-05-15T02:21:39.566Z,13.48
2023-05-15T02:24:08.878Z,13.25
2023-05-15T02:26:48.218Z,14.15
2023-05-15T02:29:21.410Z,12.23
2023-05-15T02:32:01.851Z,14.88
2023-05-15T02:34:41.128Z,15.73
2023-05-15T02:37:15.246Z,13.00
2023-05-15T02:39:46.574Z,14.35
2023-05-15T02:42:17.768Z,18.67
2023-05-15T02:44:50.312Z,15.75
2023-05-15T02:47:20.319Z,14.10
2023-05-15T02:49:49.864Z,14.48
2023-05-15T02:52:19.238Z,14.68
2023-05-15T02:54:48.484Z,15.40
2023-05-15T02:57:17.157Z,15.75
2023-05-15T02:59:46.168Z,15.60
2023-05-15T03:02:17.049Z,13.18
2023-05-15T03:04:47.105Z,19.50
2023-05-15T03:07:16.614Z,12.65
2023-05-15T03:09:45.260Z,14.70
2023-05-15T03:12:14.190Z,13.98
2023-05-15T03:14:43.067Z,10.77
2023-05-15T03:17:12.839Z,12.20
2023-05-15T03:19:44.743Z,10.15
2023-05-15T03:22:13.680Z,11.18
2023-05-15T03:24:42.280Z,15.18
2023-05-15T03:27:10.712Z,18.83
2023-05-15T03:29:41.100Z,18.33
2023-05-15T03:32:11.936Z,16.25
2023-05-15T03:34:41.206Z,15.75
2023-05-15T03:37:11.548Z,13.43
2023-05-15T03:39:39.829Z,16.25
2023-05-15T03:42:09.898Z,14.48
2023-05-15T03:44:39.602Z,13.20
2023-05-15T03:47:08.913Z,14.00
2023-05-15T03:49:37.335Z,14.13
2023-05-15T03:52:07.631Z,15.20
2023-05-15T03:54:38.383Z,14.45
2023-05-15T03:57:10.249Z,12.65
2023-05-15T03:59:39.792Z,16.38
2023-05-15T04:02:09.790Z,12.63
2023-05-15T04:04:38.765Z,14.13
2023-05-15T04:07:07.963Z,15.57
2023-05-15T04:09:39.581Z,14.07
2023-05-15T04:12:08.402Z,12.88
2023-05-15T04:14:36.919Z,14.27
2023-05-15T04:17:06.347Z,12.52
2023-05-15T04:19:34.749Z,12.18
2023-05-15T04:22:03.567Z,11.73
2023-05-15T04:24:32.300Z,8.73
2023-05-15T04:27:02.343Z,8.95
2023-05-15T04:29:30.771Z,9.80
2023-05-15T04:31:59.183Z,11.88
2023-05-15T04:34:30.837Z,10.57
2023-05-15T04:36:59.543Z,6.53
2023-05-15T04:39:28.228Z,5.93
2023-05-15T04:41:56.687Z,5.20
2023-05-15T04:44:27.656Z,9.63
2023-05-15T04:46:56.056Z,6.25
2023-05-15T04:49:27.660Z,4.32
2023-05-15T04:51:56.748Z,5.55
2023-05-15T04:54:25.437Z,7.53
2023-05-15T04:56:54.370Z,6.68
2023-05-15T04:59:25.234Z,8.30
2023-05-15T05:01:55.629Z,12.43
2023-05-15T05:04:24.360Z,6.57
2023-05-15T05:06:54.060Z,4.35
2023-05-15T05:09:23.059Z,7.07
2023-05-15T05:11:53.405Z,8.15
2023-05-15T05:14:23.682Z,8.02
2023-05-15T05:16:52.354Z,6.60
2023-05-15T05:19:22.316Z,6.63
2023-05-15T05:21:52.538Z,10.73
2023-05-15T05:24:21.064Z,11.70
2023-05-15T05:26:50.245Z,8.90
2023-05-15T05:29:18.545Z,6.72
2023-05-15T05:31:48.916Z,4.75
2023-05-15T05:34:17.834Z,7.53
2023-05-15T05:36:47.780Z,11.25
2023-05-15T05:39:16.641Z,6.22
2023-05-15T05:41:45.819Z,8.88
2023-05-15T05:44:14.537Z,7.38
2023-05-15T05:46:43.892Z,6.32
2023-05-15T05:49:12.865Z,5.70
2023-05-15T05:51:41.265Z,8.25
2023-05-15T05:54:11.450Z,6.55
2023-05-15T05:56:40.578Z,7.03
2023-05-15T05:59:09.973Z,7.32
2023-05-15T06:01:38.700Z,5.60
2023-05-15T06:04:08.286Z,5.22
2023-05-15T06:06:36.668Z,6.50
2023-05-15T06:09:05.678Z,4.40
2023-05-15T06:11:36.420Z,7.05
2023-05-15T06:14:05.099Z,5.82
2023-05-15T06:16:33.955Z,9.02
2023-05-15T06:19:02.399Z,5.03
2023-05-15T06:21:31.006Z,3.97
2023-05-15T06:24:01.367Z,7.45
2023-05-15T06:26:31.444Z,10.77
2023-05-15T06:29:04.084Z,5.60
2023-05-15T06:31:32.597Z,4.47
2023-05-15T06:34:01.076Z,4.75
2023-05-15T06:36:30.414Z,4.47
2023-05-15T06:38:58.760Z,6.00
2023-05-15T06:41:27.576Z,3.50
2023-05-15T06:43:56.677Z,5.30
2023-05-15T06:46:27.228Z,3.85
2023-05-15T06:48:57.619Z,5.18
2023-05-15T06:51:25.955Z,3.35
2023-05-15T06:53:54.033Z,3.78
2023-05-15T06:56:24.169Z,4.35
2023-05-15T06:58:52.539Z,3.45
2023-05-15T07:01:20.620Z,3.25
2023-05-15T07:03:50.871Z,4.40
2023-05-15T07:06:19.523Z,4.80
2023-05-15T07:08:48.202Z,6.28
2023-05-15T07:11:16.873Z,5.80
2023-05-15T07:13:45.593Z,2.88
2023-05-15T07:16:15.158Z,4.95
2023-05-15T07:18:43.881Z,5.50
2023-05-15T07:21:13.870Z,5.55
2023-05-15T07:23:42.619Z,3.22
2023-05-15T07:26:16.860Z,2.60
2023-05-15T07:28:48.686Z,2.40
2023-05-15T07:31:20.339Z,2.20
2023-05-15T07:33:48.766Z,2.95
2023-05-15T07:36:19.200Z,2.30
2023-05-15T07:38:47.950Z,2.50
2023-05-15T07:41:16.830Z,5.65
2023-05-15T07:43:45.138Z,4.03
2023-05-15T07:46:15.354Z,3.58
2023-05-15T07:48:44.299Z,3.58
2023-05-15T07:51:13.705Z,2.40
2023-05-15T07:53:43.664Z,3.00
2023-05-15T07:56:12.511Z,3.92
2023-05-15T07:58:41.060Z,3.88
2023-05-15T08:01:09.615Z,3.50
2023-05-15T08:03:38.001Z,2.95
2023-05-15T08:06:08.490Z,4.80
2023-05-15T08:08:37.277Z,10.27
2023-05-15T08:11:09.582Z,3.47
2023-05-15T08:13:39.202Z,3.13
2023-05-15T08:16:07.843Z,4.47
2023-05-15T08:18:37.111Z,3.47
2023-05-15T08:21:05.670Z,3.28
2023-05-15T08:23:34.285Z,6.45
2023-05-15T08:26:03.445Z,3.17
2023-05-15T08:28:33.711Z,2.95
2023-05-15T08:31:02.622Z,4.43
2023-05-15T08:33:31.214Z,6.40
2023-05-15T08:35:59.836Z,3.03
2023-05-15T08:38:31.398Z,2.63
2023-05-15T08:41:04.788Z,2.95
2023-05-15T08:43:39.106Z,2.28
2023-05-15T08:46:08.924Z,4.78
2023-05-15T08:48:41.746Z,3.65
2023-05-15T08:51:11.836Z,2.53
2023-05-15T08:53:41.374Z,4.72
2023-05-15T08:56:11.348Z,5.57
2023-05-15T08:58:44.029Z,3.95
2023-05-15T09:01:16.803Z,4.63
2023-05-15T09:03:45.944Z,3.00
2023-05-15T09:06:15.442Z,5.32
2023-05-15T09:08:47.478Z,2.88
2023-05-15T09:11:17.014Z,4.65
2023-05-15T09:13:50.730Z,2.47
2023-05-15T09:16:21.265Z,4.15
2023-05-15T09:18:51.767Z,5.40
2023-05-15T09:21:33.815Z,3.10
2023-05-15T09:24:18.100Z,3.67
2023-05-15T09:26:49.292Z,3.33
2023-05-15T09:29:20.049Z,2.95
2023-05-15T09:31:49.709Z,4.68
2023-05-15T09:34:19.041Z,4.57
2023-05-15T09:36:47.718Z,2.65
2023-05-15T09:39:25.223Z,5.82
2023-05-15T09:41:54.701Z,10.15
2023-05-15T09:44:30.389Z,3.33
2023-05-15T09:47:00.207Z,4.30
2023-05-15T09:49:32.017Z,10.38
2023-05-15T09:52:02.592Z,7.22
2023-05-15T09:54:33.573Z,6.50
2023-05-15T09:57:10.760Z,5.35
2023-05-15T09:59:46.702Z,7.60
2023-05-15T10:02:54.549Z,23.80
2023-05-15T10:05:35.282Z,5.75
2023-05-15T10:08:11.693Z,7.10
2023-05-15T10:10:43.460Z,6.57
2023-05-15T10:13:18.349Z,5.90
2023-05-15T10:15:50.643Z,15.73
2023-05-15T10:18:25.035Z,12.88
2023-05-15T10:20:55.797Z,7.80
2023-05-15T10:26:22.876Z,9.05
2023-05-15T10:28:55.477Z,8.82
2023-05-15T10:31:26.799Z,11.70
2023-05-15T10:33:57.813Z,10.88
2023-05-15T10:36:27.298Z,13.07
2023-05-15T10:38:56.371Z,13.43
2023-05-15T10:41:28.843Z,15.38
2023-05-15T10:44:00.628Z,16.20
2023-05-15T10:46:33.559Z,14.18
2023-05-15T10:49:03.494Z,13.07
2023-05-15T10:51:36.351Z,18.58
2023-05-15T10:54:07.472Z,14.90
2023-05-15T10:56:39.696Z,16.80
2023-05-15T10:59:09.876Z,16.30
2023-05-15T11:01:43.291Z,20.00
2023-05-15T11:04:13.873Z,17.23
2023-05-15T11:06:43.962Z,18.52
2023-05-15T11:09:36.678Z,21.92
2023-05-15T11:12:07.793Z,19.05
2023-05-15T11:14:38.686Z,19.77
2023-05-15T11:17:10.903Z,20.88
2023-05-15T11:20:00.793Z,19.15
2023-05-15T11:22:32.330Z,17.65
2023-05-15T11:25:02.833Z,17.40
2023-05-15T11:27:35.310Z,18.13
2023-05-15T11:30:16.258Z,20.38
2023-05-15T11:32:54.776Z,22.75
2023-05-15T11:35:28.892Z,16.58
2023-05-15T11:37:59.176Z,20.48
2023-05-15T11:40:31.100Z,15.27
2023-05-15T11:43:07.690Z,16.95
2023-05-15T11:45:38.212Z,15.77
2023-05-15T11:48:15.162Z,14.43
2023-05-15T11:50:49.946Z,14.07
2023-05-15T11:53:20.422Z,15.07
2023-05-15T11:55:52.014Z,17.30
2023-05-15T11:58:25.921Z,10.93
2023-05-15T12:00:55.789Z,14.23
2023-05-15T12:03:28.802Z,9.45
2023-05-15T12:06:00.844Z,12.43
2023-05-15T12:08:34.302Z,10.98
2023-05-15T12:11:03.407Z,8.65
2023-05-15T12:13:32.991Z,7.90
2023-05-15T12:16:03.866Z,8.23
2023-05-15T12:18:38.705Z,7.47
2023-05-15T12:21:08.412Z,9.65
2023-05-15T12:23:36.604Z,10.05
2023-05-15T12:26:06.446Z,5.68
2023-05-15T12:28:37.777Z,6.70
2023-05-15T12:31:07.503Z,7.38
2023-05-15T12:33:38.340Z,7.10
2023-05-15T12:36:09.028Z,6.68
2023-05-15T12:38:41.481Z,8.75
2023-05-15T12:41:13.556Z,6.53
2023-05-15T12:43:43.577Z,3.25
2023-05-15T12:46:15.301Z,3.28
2023-05-15T12:48:46.083Z,5.97
2023-05-15T12:51:18.870Z,4.20
2023-05-15T12:53:49.002Z,4.78
2023-05-15T12:56:17.938Z,3.50
2023-05-15T12:58:48.940Z,4.55
2023-05-15T13:01:23.645Z,5.10
2023-05-15T13:03:56.728Z,6.07
2023-05-15T13:06:34.776Z,5.30
2023-05-15T13:09:24.283Z,8.15
2023-05-15T13:11:56.367Z,8.55
2023-05-15T13:14:29.577Z,7.68
2023-05-15T13:17:02.950Z,9.13
2023-05-15T13:19:35.793Z,9.52
2023-05-15T13:22:05.954Z,7.68
2023-05-15T13:24:34.568Z,7.32
2023-05-15T13:27:03.724Z,7.00
2023-05-15T13:29:34.810Z,9.90
2023-05-15T13:32:05.472Z,7.07
2023-05-15T13:34:38.004Z,8.50
2023-05-15T13:37:06.557Z,7.75
2023-05-15T13:39:36.700Z,8.13
2023-05-15T13:42:05.901Z,8.38
2023-05-15T13:44:35.824Z,7.20
2023-05-15T13:47:07.204Z,8.93
2023-05-15T13:49:39.632Z,9.50
2023-05-15T13:52:08.973Z,7.60
2023-05-15T13:54:37.880Z,11.07
2023-05-15T13:57:07.105Z,15.23
2023-05-15T13:59:35.598Z,17.75
2023-05-15T14:02:06.643Z,14.40
2023-05-15T14:04:38.449Z,0.20
2023-05-15T14:07:07.406Z,0.38
2023-05-15T14:09:39.092Z,0.20
2023-05-15T14:12:07.859Z,0.70
2023-05-15T14:14:36.329Z,0.10
2023-05-15T14:17:04.813Z,0.25
2023-05-15T14:19:33.613Z,0.10
2023-05-15T14:22:03.819Z,0.55
2023-05-15T14:24:34.167Z,0.75
2023-05-15T14:27:02.978Z,0.20
2023-05-15T14:29:31.340Z,0.47
2023-05-15T14:31:59.671Z,0.30
2023-05-15T14:34:28.672Z,0.32
2023-05-15T14:36:56.904Z,0.35
2023-05-15T14:39:28.321Z,0.25
2023-05-15T14:41:56.734Z,0.10
2023-05-15T14:44:25.603Z,0.10
2023-05-15T14:47:08.051Z,0.20
2023-05-15T14:49:36.502Z,0.45
2023-05-15T14:52:07.304Z,0.65
2023-05-15T14:54:39.216Z,0.20
2023-05-15T14:57:08.803Z,0.10
2023-05-15T14:59:37.215Z,3.10
2023-05-15T15:02:06.173Z,0.40
2023-05-15T15:04:35.062Z,0.98
2023-05-15T15:07:06.587Z,0.25
2023-05-15T15:09:36.580Z,0.50
2023-05-15T15:12:05.425Z,0.52
2023-05-15T15:14:34.020Z,20.63
2023-05-15T15:17:03.723Z,0.17
2023-05-15T15:19:32.324Z,0.30
2023-05-15T15:22:01.208Z,0.20
2023-05-15T15:24:30.190Z,0.08
2023-05-15T15:27:04.638Z,0.10
2023-05-15T15:29:33.224Z,0.10
2023-05-15T15:32:07.108Z,0.20
2023-05-15T15:37:06.083Z,0.13
2023-05-15T15:39:35.764Z,0.10
2023-05-15T15:42:06.679Z,0.10
2023-05-15T15:44:37.761Z,0.10
2023-05-15T15:47:07.531Z,0.28
2023-05-15T15:49:36.678Z,0.13
2023-05-15T15:52:05.774Z,1.17
2023-05-15T15:54:34.550Z,0.00
2023-05-15T15:57:03.804Z,0.10
2023-05-15T15:59:34.922Z,0.10
2023-05-15T16:02:07.104Z,2.40
2023-05-15T16:04:36.862Z,0.22
2023-05-15T16:07:06.931Z,2.40
2023-05-15T16:09:36.143Z,0.22
2023-05-15T16:12:05.959Z,0.10
2023-05-15T16:14:39.242Z,0.10
2023-05-15T16:17:09.669Z,0.20
2023-05-15T16:19:40.387Z,0.47
2023-05-15T16:22:08.960Z,0.20
2023-05-15T16:24:37.506Z,0.13
2023-05-15T16:27:06.848Z,1.95
2023-05-15T16:29:38.372Z,0.10
2023-05-15T16:32:07.835Z,0.32
2023-05-15T16:34:37.217Z,0.00
2023-05-15T16:37:06.970Z,0.57
2023-05-15T16:39:40.121Z,0.15
2023-05-15T16:42:09.780Z,0.30
2023-05-15T16:44:39.391Z,0.25
2023-05-15T16:47:08.769Z,0.20
2023-05-15T16:49:37.654Z,0.00
2023-05-15T16:52:06.988Z,0.10
2023-05-15T16:54:38.419Z,0.10
2023-05-15T16:57:07.497Z,0.10
2023-05-15T16:59:36.051Z,0.20
2023-05-15T17:02:08.927Z,0.25
2023-05-15T17:04:37.730Z,0.30
2023-05-15T17:07:07.399Z,0.10
2023-05-15T17:09:38.296Z,0.28
2023-05-15T17:12:07.733Z,0.25
2023-05-15T17:14:36.867Z,9.75
2023-05-15T17:17:07.822Z,8.98
2023-05-15T17:19:36.652Z,6.13
2023-05-15T17:22:05.553Z,7.15
2023-05-15T17:24:49.940Z,9.70
2023-05-15T17:27:21.967Z,5.95
2023-05-15T17:29:51.050Z,7.03
2023-05-15T17:32:21.590Z,6.20
2023-05-15T17:34:51.520Z,7.90
2023-05-15T17:37:20.569Z,6.32
2023-05-15T17:39:51.754Z,5.63
2023-05-15T17:42:20.055Z,9.10
2023-05-15T17:44:49.521Z,6.55
2023-05-15T17:47:22.284Z,10.30
2023-05-15T17:49:52.984Z,6.20
2023-05-15T17:52:22.102Z,5.07
2023-05-15T17:54:53.078Z,7.88
2023-05-15T17:57:21.975Z,6.47
2023-05-15T17:59:51.800Z,5.60
2023-05-15T18:02:22.941Z,5.85
2023-05-15T18:04:52.209Z,8.10
2023-05-15T18:07:21.195Z,6.32
2023-05-15T18:09:49.832Z,5.40
2023-05-15T18:12:19.183Z,6.03
2023-05-15T18:14:48.762Z,7.32
2023-05-15T18:17:20.403Z,7.35
2023-05-15T18:19:50.514Z,7.63
2023-05-15T18:22:20.263Z,9.68
2023-05-15T18:24:51.593Z,6.70
2023-05-15T18:27:20.523Z,8.30
2023-05-15T18:29:50.253Z,6.88
2023-05-15T18:32:21.771Z,5.88
2023-05-15T18:34:51.676Z,6.80
2023-05-15T18:37:22.458Z,6.03
2023-05-15T18:39:51.630Z,6.50
2023-05-15T18:42:19.972Z,6.53
2023-05-15T18:44:48.108Z,9.10
2023-05-15T18:47:16.864Z,6.85
2023-05-15T18:49:45.203Z,8.10
2023-05-15T18:52:15.131Z,6.60
2023-05-15T18:54:44.502Z,8.18
2023-05-15T18:57:17.910Z,10.27
2023-05-15T18:59:50.466Z,7.60
2023-05-15T19:02:21.021Z,7.40
2023-05-15T19:04:50.265Z,14.57
2023-05-15T19:07:24.179Z,12.68
2023-05-15T19:09:54.135Z,8.45
2023-05-15T19:12:22.910Z,9.25
2023-05-15T19:14:52.855Z,8.85
2023-05-15T19:17:24.425Z,10.93
2023-05-15T19:19:54.861Z,10.80
2023-05-15T19:22:24.802Z,10.13
2023-05-15T19:24:53.513Z,13.35
2023-05-15T19:27:22.688Z,10.30
2023-05-15T19:29:54.181Z,10.20
2023-05-15T19:32:23.029Z,9.27
2023-05-15T19:34:52.244Z,10.98
2023-05-15T19:37:21.254Z,10.13
2023-05-15T19:39:54.082Z,11.60
2023-05-15T19:42:23.587Z,13.32
2023-05-15T19:44:53.179Z,10.05
2023-05-15T19:47:22.809Z,9.82
2023-05-15T19:49:53.061Z,11.38
2023-05-15T19:52:23.027Z,9.02
2023-05-15T19:54:54.556Z,10.52
2023-05-15T19:57:24.936Z,10.43
2023-05-15T19:59:54.501Z,8.20
2023-05-15T20:02:23.310Z,9.95
2023-05-15T20:04:53.198Z,9.00
2023-05-15T20:07:21.905Z,10.88
2023-05-15T20:09:51.482Z,10.15
2023-05-15T20:12:23.475Z,11.88
2023-05-15T20:14:53.698Z,11.20
2023-05-15T20:17:28.472Z,8.90
2023-05-15T20:19:59.157Z,10.40
2023-05-15T20:22:28.737Z,13.90
2023-05-15T20:24:57.768Z,12.60
2023-05-15T20:27:31.462Z,12.90
2023-05-15T20:30:04.892Z,12.05
2023-05-15T20:32:34.761Z,8.95
2023-05-15T20:35:03.960Z,9.73
2023-05-15T20:37:33.769Z,11.95
2023-05-15T20:40:05.524Z,13.65
2023-05-15T20:42:36.893Z,11.10
2023-05-15T20:45:06.661Z,13.15
2023-05-15T20:47:35.973Z,13.82
2023-05-15T20:50:05.161Z,12.05
2023-05-15T20:52:36.849Z,16.27
2023-05-15T20:55:16.724Z,17.77
2023-05-15T20:57:50.290Z,14.38
2023-05-15T21:00:19.636Z,12.88
2023-05-15T21:02:49.122Z,20.08
2023-05-15T21:05:25.377Z,12.80
2023-05-15T21:07:55.271Z,16.85
2023-05-15T21:10:28.440Z,18.08
2023-05-15T21:12:59.841Z,15.60
2023-05-15T21:15:32.832Z,17.15
2023-05-15T21:18:02.769Z,16.33
2023-05-15T21:20:32.949Z,14.85
2023-05-15T21:23:03.896Z,14.25
2023-05-15T21:25:37.820Z,19.95
2023-05-15T21:28:09.286Z,14.80
2023-05-15T21:30:38.322Z,14.73
2023-05-15T21:33:08.142Z,22.15
2023-05-15T21:35:37.209Z,18.25
2023-05-15T21:38:07.717Z,15.27
2023-05-15T21:40:37.022Z,16.05
2023-05-15T21:43:05.644Z,19.13
2023-05-15T21:45:36.677Z,18.85
2023-05-15T21:48:07.357Z,20.80
2023-05-15T21:50:41.209Z,22.80
2023-05-15T21:53:10.012Z,26.77
2023-05-15T21:55:39.880Z,24.42
2023-05-15T21:58:13.757Z,29.90
2023-05-15T22:00:46.362Z,24.42
2023-05-15T22:03:16.821Z,24.67
2023-05-15T22:05:50.134Z,18.88
2023-05-15T22:08:19.237Z,19.27
2023-05-15T22:10:48.459Z,17.60
2023-05-15T22:13:17.504Z,21.20
2023-05-15T22:15:47.321Z,15.10
2023-05-15T22:18:16.209Z,18.88
2023-05-15T22:20:46.129Z,19.88
2023-05-15T22:23:15.459Z,21.38
2023-05-15T22:25:54.372Z,22.33
2023-05-15T22:28:25.471Z,18.67
2023-05-15T22:31:02.308Z,20.70
2023-05-15T22:33:31.930Z,21.80
2023-05-15T22:36:05.994Z,19.42
2023-05-15T22:38:36.011Z,28.70
2023-05-15T22:41:04.649Z,26.42
2023-05-15T22:43:34.414Z,31.55
2023-05-15T22:46:04.736Z,36.13
2023-05-15T22:48:34.480Z,33.97
2023-05-15T22:51:03.157Z,29.90
2023-05-15T22:53:31.820Z,33.05
2023-05-15T22:56:00.358Z,31.85
2023-05-15T22:58:29.595Z,39.25
2023-05-15T23:00:58.027Z,35.05
2023-05-15T23:03:28.535Z,32.05
2023-05-15T23:05:57.204Z,28.42
2023-05-15T23:08:25.516Z,27.83
2023-05-15T23:10:56.501Z,26.33
2023-05-15T23:13:25.083Z,34.30
2023-05-15T23:15:53.654Z,30.35
2023-05-15T23:18:28.865Z,31.55
2023-05-15T23:21:00.940Z,32.92
2023-05-15T23:23:29.817Z,32.45
2023-05-15T23:25:58.109Z,34.47
2023-05-15T23:28:26.789Z,35.35
2023-05-15T23:30:55.311Z,34.72
2023-05-15T23:33:25.331Z,35.22
2023-05-15T23:35:55.508Z,35.38
2023-05-15T23:38:26.208Z,32.97
2023-05-15T23:40:54.170Z,37.17
2023-05-15T23:43:22.479Z,39.10
2023-05-15T23:45:50.759Z,36.20
2023-05-15T23:48:19.787Z,38.70
2023-05-15T23:50:51.717Z,39.40
2023-05-15T23:53:20.861Z,37.63
2023-05-15T23:55:51.765Z,38.45
2023-05-15T23:58:20.086Z,38.80
